createdAt,value
2019-05-16T00:02:08.284Z,50.70
2019-05-16T00:04:43.283Z,49.93
2019-05-16T00:07:19.201Z,47.53
2019-05-16T00:09:54.316Z,45.10
2019-05-16T00:12:29.190Z,46.87
2019-05-16T00:15:03.026Z,45.27
2019-05-16T00:17:38.548Z,44.67
2019-05-16T00:20:13.364Z,45.70
2019-05-16T00:22:48.471Z,44.33
2019-05-16T00:25:22.057Z,43.47
2019-05-16T00:27:58.420Z,46.50
2019-05-16T00:30:31.160Z,43.10
2019-05-16T00:33:04.971Z,43.90
2019-05-16T00:35:39.023Z,42.87
2019-05-16T00:38:12.735Z,41.67
2019-05-16T00:40:48.603Z,41.63
2019-05-16T00:43:21.333Z,40.87
2019-05-16T00:45:55.612Z,39.80
2019-05-16T00:48:29.424Z,39.63
2019-05-16T00:51:04.853Z,41.17
2019-05-16T00:53:40.468Z,41.60
2019-05-16T00:56:14.674Z,39.73
2019-05-16T00:58:49.998Z,40.35
2019-05-16T01:01:25.405Z,37.83
2019-05-16T01:03:59.238Z,37.03
2019-05-16T01:06:33.303Z,37.13
2019-05-16T01:09:09.721Z,36.97
2019-05-16T01:11:45.272Z,37.10
2019-05-16T01:14:20.586Z,35.55
2019-05-16T01:16:57.996Z,35.93
2019-05-16T01:19:31.459Z,34.90
2019-05-16T01:22:08.352Z,32.95
2019-05-16T01:24:42.365Z,33.75
2019-05-16T01:27:18.364Z,31.33
2019-05-16T01:29:53.646Z,33.60
2019-05-16T01:32:32.220Z,31.70
2019-05-16T01:35:04.479Z,31.80
2019-05-16T01:37:39.844Z,32.73
2019-05-16T01:40:13.862Z,33.65
2019-05-16T01:42:49.860Z,32.27
2019-05-16T01:45:27.674Z,30.77
2019-05-16T01:48:02.271Z,32.17
2019-05-16T01:50:47.987Z,31.60
2019-05-16T01:53:23.192Z,30.03
2019-05-16T01:55:58.011Z,31.13
2019-05-16T01:58:34.012Z,29.83
2019-05-16T02:01:13.180Z,29.17
2019-05-16T02:03:44.411Z,27.43
2019-05-16T02:06:18.719Z,28.50
2019-05-16T02:08:54.311Z,28.13
2019-05-16T02:11:29.627Z,27.42
2019-05-16T02:14:05.027Z,27.57
2019-05-16T02:16:40.210Z,25.10
2019-05-16T02:19:14.511Z,25.57
2019-05-16T02:21:53.604Z,25.60
2019-05-16T02:24:31.630Z,24.57
2019-05-16T02:27:09.567Z,24.15
2019-05-16T02:29:44.455Z,23.38
2019-05-16T02:32:22.231Z,25.53
2019-05-16T02:35:01.160Z,23.70
2019-05-16T02:37:35.390Z,25.70
2019-05-16T02:40:12.136Z,22.73
2019-05-16T02:42:51.241Z,21.47
2019-05-16T02:45:32.514Z,19.83
2019-05-16T02:48:05.879Z,20.87
2019-05-16T02:50:41.881Z,20.27
2019-05-16T02:53:17.122Z,19.67
2019-05-16T02:55:53.669Z,19.25
2019-05-16T02:58:30.733Z,19.50
2019-05-16T03:01:06.479Z,20.23
2019-05-16T03:04:03.238Z,18.87
2019-05-16T03:06:40.849Z,18.57
2019-05-16T03:09:15.375Z,16.77
2019-05-16T03:11:52.253Z,17.48
2019-05-16T03:14:26.403Z,16.93
2019-05-16T03:17:03.141Z,15.87
2019-05-16T03:19:41.737Z,15.10
2019-05-16T03:22:21.566Z,14.03
2019-05-16T03:24:52.874Z,13.93
2019-05-16T03:27:30.358Z,12.97
2019-05-16T03:30:03.246Z,12.93
2019-05-16T03:32:43.975Z,13.97
2019-05-16T03:35:16.432Z,13.65
2019-05-16T03:38:12.177Z,14.68
2019-05-16T03:40:51.013Z,15.83
2019-05-16T03:43:23.575Z,16.00
2019-05-16T03:45:57.438Z,15.27
2019-05-16T03:48:32.851Z,15.30
2019-05-16T03:51:07.148Z,15.68
2019-05-16T03:53:41.193Z,13.22
2019-05-16T03:56:15.083Z,13.55
2019-05-16T03:58:51.025Z,13.83
2019-05-16T04:01:26.645Z,16.00
2019-05-16T04:04:01.649Z,16.63
2019-05-16T04:06:35.141Z,15.20
2019-05-16T04:09:12.413Z,16.40
2019-05-16T04:11:46.512Z,16.20
2019-05-16T04:14:21.476Z,16.50
2019-05-16T04:16:55.006Z,15.67
2019-05-16T04:19:32.154Z,15.30
2019-05-16T04:22:10.447Z,14.47
2019-05-16T04:24:46.245Z,15.48
2019-05-16T04:27:21.666Z,14.25
2019-05-16T04:29:56.302Z,16.57
2019-05-16T04:32:31.500Z,17.67
2019-05-16T04:35:06.508Z,15.30
2019-05-16T04:37:42.447Z,14.80
2019-05-16T04:40:21.645Z,14.75
2019-05-16T04:42:54.908Z,16.50
2019-05-16T04:45:31.726Z,15.40
2019-05-16T04:48:04.074Z,16.63
2019-05-16T04:50:41.790Z,16.17
2019-05-16T04:53:14.813Z,17.83
2019-05-16T04:55:51.676Z,17.05
2019-05-16T04:58:24.094Z,17.52
2019-05-16T05:01:01.542Z,16.63
2019-05-16T05:03:35.683Z,19.60
2019-05-16T05:06:11.360Z,17.43
2019-05-16T05:08:54.478Z,17.30
2019-05-16T05:11:21.726Z,17.93
2019-05-16T05:13:57.425Z,17.57
2019-05-16T05:16:32.391Z,18.80
2019-05-16T05:19:07.615Z,19.13
2019-05-16T05:21:41.490Z,21.42
2019-05-16T05:24:15.339Z,21.25
2019-05-16T05:26:50.658Z,20.32
2019-05-16T05:29:24.482Z,19.62
2019-05-16T05:32:03.539Z,18.50
2019-05-16T05:34:33.012Z,19.03
2019-05-16T05:37:12.260Z,19.00
2019-05-16T05:39:45.023Z,19.32
2019-05-16T05:42:20.121Z,20.30
2019-05-16T05:44:56.083Z,19.12
2019-05-16T05:47:30.828Z,16.90
2019-05-16T05:50:07.642Z,18.57
2019-05-16T05:52:45.755Z,20.40
2019-05-16T05:55:20.004Z,17.98
2019-05-16T05:57:56.016Z,19.10
2019-05-16T06:00:32.642Z,19.50
2019-05-16T06:03:06.103Z,18.00
2019-05-16T06:05:41.294Z,16.93
2019-05-16T06:08:16.647Z,18.03
2019-05-16T06:10:50.761Z,16.90
2019-05-16T06:13:24.386Z,16.97
2019-05-16T06:16:00.173Z,16.93
2019-05-16T06:18:35.490Z,17.00
2019-05-16T06:21:11.226Z,17.80
2019-05-16T06:23:45.296Z,17.35
2019-05-16T06:26:20.632Z,17.75
2019-05-16T06:28:57.108Z,17.42
2019-05-16T06:31:31.305Z,17.10
2019-05-16T06:34:07.962Z,18.07
2019-05-16T06:36:41.562Z,17.33
2019-05-16T06:39:15.382Z,16.55
2019-05-16T06:41:50.956Z,16.23
2019-05-16T06:44:26.188Z,16.25
2019-05-16T06:47:15.933Z,16.37
2019-05-16T06:49:36.403Z,15.90
2019-05-16T06:52:10.464Z,16.23
2019-05-16T06:54:45.942Z,16.43
2019-05-16T06:57:20.605Z,16.37
2019-05-16T06:59:54.500Z,16.40
2019-05-16T07:02:33.645Z,16.37
2019-05-16T07:05:03.100Z,16.15
2019-05-16T07:07:36.694Z,17.27
2019-05-16T07:10:12.156Z,17.70
2019-05-16T07:12:46.032Z,16.67
2019-05-16T07:15:21.992Z,16.43
2019-05-16T07:17:59.444Z,17.30
2019-05-16T07:20:32.552Z,16.67
2019-05-16T07:23:06.543Z,16.57
2019-05-16T07:25:41.984Z,16.70
2019-05-16T07:28:17.328Z,17.80
2019-05-16T07:30:52.448Z,18.55
2019-05-16T07:33:27.655Z,19.00
2019-05-16T07:36:01.486Z,17.03
2019-05-16T07:38:35.263Z,18.05
2019-05-16T07:41:13.737Z,17.90
2019-05-16T07:43:45.350Z,17.95
2019-05-16T07:46:20.594Z,18.77
2019-05-16T07:48:54.468Z,18.27
2019-05-16T07:51:30.820Z,18.90
2019-05-16T07:54:02.975Z,19.37
2019-05-16T07:56:40.467Z,18.60
2019-05-16T07:59:13.292Z,19.43
2019-05-16T08:01:46.884Z,19.80
2019-05-16T08:04:20.513Z,19.57
2019-05-16T08:06:55.389Z,20.15
2019-05-16T08:09:30.613Z,19.33
2019-05-16T08:12:26.482Z,19.53
2019-05-16T08:15:00.719Z,20.23
2019-05-16T08:17:34.187Z,23.00
2019-05-16T08:20:11.021Z,21.37
2019-05-16T08:22:46.114Z,23.45
2019-05-16T08:25:21.342Z,22.90
2019-05-16T08:27:56.386Z,22.27
2019-05-16T08:30:31.918Z,22.10
2019-05-16T08:33:06.248Z,22.60
2019-05-16T08:35:45.716Z,23.27
2019-05-16T08:38:21.433Z,24.53
2019-05-16T08:41:07.990Z,25.85
2019-05-16T08:43:31.540Z,25.83
2019-05-16T08:46:12.253Z,23.73
2019-05-16T08:48:53.325Z,25.08
2019-05-16T08:51:23.788Z,25.48
2019-05-16T08:54:01.245Z,26.23
2019-05-16T08:56:32.785Z,26.67
2019-05-16T08:59:13.244Z,26.50
2019-05-16T09:01:52.103Z,26.82
2019-05-16T09:04:24.460Z,25.45
2019-05-16T09:06:56.504Z,27.02
2019-05-16T09:09:44.208Z,26.90
2019-05-16T09:12:17.264Z,26.33
2019-05-16T09:14:52.299Z,27.33
2019-05-16T09:17:27.840Z,25.73
2019-05-16T09:20:01.595Z,25.03
2019-05-16T09:22:37.744Z,26.50
2019-05-16T09:25:11.964Z,26.30
2019-05-16T09:27:47.283Z,26.40
2019-05-16T09:30:21.839Z,28.60
2019-05-16T09:32:58.615Z,30.00
2019-05-16T09:35:36.975Z,29.77
2019-05-16T09:38:10.701Z,29.20
2019-05-16T09:40:47.793Z,30.57
2019-05-16T09:43:22.186Z,30.52
2019-05-16T09:46:03.490Z,31.70
2019-05-16T09:48:34.126Z,33.03
2019-05-16T09:51:09.536Z,33.43
2019-05-16T09:53:42.838Z,34.07
2019-05-16T09:56:36.998Z,33.90
2019-05-16T09:59:12.399Z,35.73
2019-05-16T10:01:47.916Z,35.63
2019-05-16T10:04:22.307Z,35.70
2019-05-16T10:06:57.304Z,33.57
2019-05-16T10:09:41.976Z,38.23
2019-05-16T10:12:14.995Z,36.90
2019-05-16T10:14:42.844Z,38.07
2019-05-16T10:17:18.695Z,38.48
2019-05-16T10:19:52.257Z,39.50
2019-05-16T10:22:27.267Z,39.42
2019-05-16T10:25:01.276Z,39.87
2019-05-16T10:27:36.774Z,42.47
2019-05-16T10:30:12.521Z,38.83
2019-05-16T10:32:48.350Z,39.55
2019-05-16T10:35:29.361Z,40.93
2019-05-16T10:37:59.449Z,41.17
2019-05-16T10:40:36.898Z,42.27
2019-05-16T10:43:11.699Z,43.33
2019-05-16T10:45:46.389Z,41.50
2019-05-16T10:48:29.587Z,40.77
2019-05-16T10:51:28.904Z,41.60
2019-05-16T10:54:13.021Z,39.53
2019-05-16T10:56:40.517Z,40.53
2019-05-16T10:59:53.320Z,41.53
2019-05-16T11:01:49.779Z,40.43
2019-05-16T11:04:42.241Z,41.37
2019-05-16T11:07:05.766Z,40.57
2019-05-16T11:09:58.356Z,41.13
2019-05-16T11:12:44.677Z,43.83
2019-05-16T11:14:58.883Z,42.30
2019-05-16T11:17:33.983Z,42.33
2019-05-16T11:20:11.004Z,41.70
2019-05-16T11:22:47.688Z,40.57
2019-05-16T11:25:28.791Z,40.90
2019-05-16T11:28:00.586Z,41.70
2019-05-16T11:30:37.304Z,40.17
2019-05-16T11:33:10.270Z,40.93
2019-05-16T11:35:47.605Z,38.03
2019-05-16T11:38:21.237Z,37.88
2019-05-16T11:40:56.867Z,34.37
2019-05-16T11:43:30.819Z,33.90
2019-05-16T11:46:24.012Z,33.42
2019-05-16T11:48:59.324Z,34.07
2019-05-16T11:51:34.558Z,37.65
2019-05-16T11:54:08.140Z,36.53
2019-05-16T11:56:41.812Z,37.33
2019-05-16T11:59:17.122Z,38.37
2019-05-16T12:01:50.823Z,40.65
2019-05-16T12:04:24.488Z,41.10
2019-05-16T12:07:00.671Z,42.08
2019-05-16T12:09:43.499Z,43.20
2019-05-16T12:12:11.318Z,42.77
2019-05-16T12:14:49.258Z,41.90
2019-05-16T12:17:24.477Z,42.13
2019-05-16T12:19:59.695Z,42.85
2019-05-16T12:22:33.640Z,42.90
2019-05-16T12:25:08.413Z,43.77
2019-05-16T12:27:42.677Z,42.40
2019-05-16T12:30:17.681Z,40.77
2019-05-16T12:32:51.561Z,40.93
2019-05-16T12:35:27.524Z,41.10
2019-05-16T12:38:00.312Z,39.70
2019-05-16T12:40:34.312Z,40.23
2019-05-16T12:43:08.316Z,39.80
2019-05-16T12:45:42.373Z,38.80
2019-05-16T12:48:20.314Z,38.32
2019-05-16T12:50:52.019Z,37.35
2019-05-16T12:53:31.664Z,38.08
2019-05-16T12:56:02.564Z,36.67
2019-05-16T12:58:42.037Z,35.50
2019-05-16T13:01:16.328Z,34.10
2019-05-16T13:03:48.343Z,33.13
2019-05-16T13:06:22.009Z,34.77
2019-05-16T13:08:57.351Z,34.35
2019-05-16T13:11:31.002Z,32.30
2019-05-16T13:14:11.081Z,32.50
2019-05-16T13:16:42.142Z,32.90
2019-05-16T13:19:18.130Z,34.03
2019-05-16T13:21:53.488Z,33.37
2019-05-16T13:24:27.940Z,32.77
2019-05-16T13:27:03.813Z,33.63
2019-05-16T13:29:37.722Z,35.70
2019-05-16T13:32:11.707Z,35.77
2019-05-16T13:34:45.357Z,35.93
2019-05-16T13:37:20.758Z,35.83
2019-05-16T13:39:56.806Z,35.37
2019-05-16T13:42:30.553Z,36.17
2019-05-16T13:45:06.784Z,38.67
2019-05-16T13:47:40.330Z,37.07
2019-05-16T13:50:16.839Z,36.68
2019-05-16T13:52:50.712Z,36.83
2019-05-16T13:55:27.086Z,37.07
2019-05-16T13:58:04.625Z,34.40
2019-05-16T14:00:39.012Z,35.50
2019-05-16T14:03:17.718Z,35.13
2019-05-16T14:05:49.481Z,34.33
2019-05-16T14:08:26.733Z,34.03
2019-05-16T14:11:01.428Z,33.50
2019-05-16T14:13:34.304Z,34.13
2019-05-16T14:16:10.670Z,33.50
2019-05-16T14:18:46.870Z,34.43
2019-05-16T14:21:20.904Z,33.63
2019-05-16T14:24:00.461Z,32.53
2019-05-16T14:26:37.016Z,32.77
2019-05-16T14:29:12.778Z,32.83
2019-05-16T14:31:48.587Z,31.83
2019-05-16T14:34:22.451Z,31.60
2019-05-16T14:36:57.872Z,29.87
2019-05-16T14:39:30.965Z,28.43
2019-05-16T14:42:06.691Z,28.53
2019-05-16T14:44:59.848Z,29.23
2019-05-16T14:47:17.737Z,27.58
2019-05-16T14:49:51.485Z,26.73
2019-05-16T14:52:27.166Z,25.95
2019-05-16T14:55:02.436Z,25.23
2019-05-16T14:57:36.884Z,25.83
2019-05-16T15:00:13.596Z,25.60
2019-05-16T15:02:48.100Z,22.43
2019-05-16T15:05:23.637Z,23.30
2019-05-16T15:07:58.770Z,22.33
2019-05-16T15:10:34.072Z,23.13
2019-05-16T15:13:08.143Z,21.63
2019-05-16T15:15:42.979Z,21.77
2019-05-16T15:18:17.786Z,21.30
2019-05-16T15:20:53.430Z,20.57
2019-05-16T15:23:28.805Z,19.73
2019-05-16T15:26:09.055Z,19.73
2019-05-16T15:28:41.058Z,18.82
2019-05-16T15:31:16.703Z,19.95
2019-05-16T15:33:52.123Z,18.40
2019-05-16T15:36:27.583Z,17.70
2019-05-16T15:39:01.892Z,17.90
2019-05-16T15:41:36.669Z,18.17
2019-05-16T15:44:12.157Z,17.43
2019-05-16T15:46:47.868Z,16.17
2019-05-16T15:49:23.590Z,15.80
2019-05-16T15:51:57.519Z,16.43
2019-05-16T15:54:32.960Z,15.77
2019-05-16T15:57:06.924Z,15.00
2019-05-16T15:59:40.606Z,14.73
2019-05-16T16:02:14.249Z,13.90
2019-05-16T16:04:51.432Z,13.60
2019-05-16T16:07:27.002Z,13.30
2019-05-16T16:10:01.763Z,12.80
2019-05-16T16:12:37.618Z,13.20
2019-05-16T16:15:13.247Z,12.95
2019-05-16T16:17:47.316Z,13.03
2019-05-16T16:20:22.526Z,12.53
2019-05-16T16:22:57.278Z,11.80
2019-05-16T16:25:32.606Z,11.83
2019-05-16T16:28:27.818Z,12.70
2019-05-16T16:31:03.029Z,12.33
2019-05-16T16:33:38.156Z,11.63
2019-05-16T16:36:12.943Z,11.33
2019-05-16T16:38:48.507Z,11.40
2019-05-16T16:41:23.583Z,11.37
2019-05-16T16:43:58.836Z,11.53
2019-05-16T16:46:34.206Z,12.07
2019-05-16T16:49:10.037Z,11.77
2019-05-16T16:51:47.775Z,12.43
2019-05-16T16:54:21.980Z,11.68
2019-05-16T16:56:55.756Z,11.53
2019-05-16T16:59:29.443Z,12.10
2019-05-16T17:02:04.872Z,11.57
2019-05-16T17:04:39.156Z,10.73
2019-05-16T17:07:12.971Z,10.80
2019-05-16T17:09:47.966Z,11.23
2019-05-16T17:12:22.294Z,11.33
2019-05-16T17:14:57.330Z,10.30
2019-05-16T17:17:31.131Z,11.90
2019-05-16T17:20:07.597Z,10.87
2019-05-16T17:22:43.455Z,11.70
2019-05-16T17:25:18.910Z,11.67
2019-05-16T17:27:54.201Z,12.07
2019-05-16T17:30:29.627Z,11.53
2019-05-16T17:33:04.596Z,11.83
2019-05-16T17:35:38.993Z,11.50
2019-05-16T17:38:14.300Z,11.50
2019-05-16T17:40:49.648Z,11.43
2019-05-16T17:43:27.005Z,11.60
2019-05-16T17:46:00.958Z,12.18
2019-05-16T17:48:37.698Z,11.60
2019-05-16T17:51:11.573Z,11.53
2019-05-16T17:53:45.602Z,11.75
2019-05-16T17:56:22.701Z,11.57
2019-05-16T17:58:58.431Z,11.28
2019-05-16T18:01:32.353Z,11.07
2019-05-16T18:04:07.966Z,11.30
2019-05-16T18:06:42.908Z,12.20
2019-05-16T18:09:18.305Z,11.40
2019-05-16T18:11:53.168Z,12.00
2019-05-16T18:14:27.848Z,13.18
2019-05-16T18:17:02.233Z,12.70
2019-05-16T18:19:37.267Z,12.60
2019-05-16T18:22:10.948Z,11.93
2019-05-16T18:24:47.399Z,11.77
2019-05-16T18:27:21.079Z,11.43
2019-05-16T18:29:55.423Z,11.68
2019-05-16T18:32:30.801Z,12.43
2019-05-16T18:35:07.088Z,12.73
2019-05-16T18:37:41.240Z,12.20
2019-05-16T18:40:16.741Z,12.20
2019-05-16T18:42:50.307Z,12.90
2019-05-16T18:45:27.807Z,12.03
2019-05-16T18:48:03.643Z,13.13
2019-05-16T18:50:38.621Z,12.80
2019-05-16T18:53:12.466Z,14.00
2019-05-16T18:55:47.624Z,13.50
2019-05-16T18:58:22.455Z,13.64
2019-05-16T19:00:56.663Z,14.13
2019-05-16T19:03:30.506Z,13.98
2019-05-16T19:06:07.786Z,13.80
2019-05-16T19:08:42.484Z,13.77
2019-05-16T19:11:17.832Z,15.93
2019-05-16T19:13:52.804Z,15.78
2019-05-16T19:16:26.522Z,15.10
2019-05-16T19:19:01.864Z,16.05
2019-05-16T19:21:36.831Z,16.90
2019-05-16T19:24:12.162Z,14.97
2019-05-16T19:26:48.070Z,16.00
2019-05-16T19:29:23.352Z,17.77
2019-05-16T19:31:57.206Z,17.20
2019-05-16T19:34:33.381Z,16.00
2019-05-16T19:37:08.360Z,17.67
2019-05-16T19:39:43.718Z,17.23
2019-05-16T19:42:19.759Z,18.00
2019-05-16T19:44:53.285Z,17.92
2019-05-16T19:47:35.039Z,19.00
2019-05-16T19:50:02.367Z,18.83
2019-05-16T19:52:36.901Z,17.00
2019-05-16T19:55:12.427Z,16.23
2019-05-16T19:57:48.055Z,17.42
2019-05-16T20:00:22.553Z,17.40
2019-05-16T20:02:57.757Z,16.23
2019-05-16T20:05:32.031Z,17.67
2019-05-16T20:08:06.587Z,19.13
2019-05-16T20:10:42.544Z,17.40
2019-05-16T20:13:17.918Z,17.62
2019-05-16T20:15:51.524Z,18.70
2019-05-16T20:18:27.153Z,17.73
2019-05-16T20:21:00.609Z,18.85
2019-05-16T20:23:36.833Z,18.37
2019-05-16T20:26:09.471Z,21.60
2019-05-16T20:28:43.232Z,20.63
2019-05-16T20:31:17.229Z,20.33
2019-05-16T20:33:50.867Z,21.42
2019-05-16T20:36:26.619Z,19.57
2019-05-16T20:39:00.198Z,20.37
2019-05-16T20:41:34.077Z,19.27
2019-05-16T20:44:07.845Z,19.17
2019-05-16T20:46:42.918Z,20.87
2019-05-16T20:49:18.276Z,22.15
2019-05-16T20:51:52.065Z,21.82
2019-05-16T20:54:27.537Z,21.23
2019-05-16T20:57:02.092Z,22.00
2019-05-16T20:59:35.737Z,20.43
2019-05-16T21:02:09.450Z,21.17
2019-05-16T21:04:43.083Z,19.98
2019-05-16T21:07:17.241Z,21.37
2019-05-16T21:09:51.194Z,20.20
2019-05-16T21:12:26.573Z,19.63
2019-05-16T21:14:59.965Z,21.10
2019-05-16T21:17:35.442Z,19.93
2019-05-16T21:20:09.416Z,22.27
2019-05-16T21:22:43.846Z,20.00
2019-05-16T21:25:18.922Z,20.93
2019-05-16T21:27:53.923Z,20.40
2019-05-16T21:30:27.660Z,19.93
2019-05-16T21:33:01.472Z,21.13
2019-05-16T21:35:36.539Z,20.57
2019-05-16T21:38:11.609Z,20.10
2019-05-16T21:40:47.401Z,22.43
2019-05-16T21:43:21.681Z,20.40
2019-05-16T21:45:56.695Z,22.03
2019-05-16T21:48:32.110Z,21.10
2019-05-16T21:51:07.693Z,19.77
2019-05-16T21:53:42.050Z,20.57
2019-05-16T21:56:17.619Z,20.67
2019-05-16T21:58:52.831Z,20.13
2019-05-16T22:01:29.197Z,20.30
2019-05-16T22:04:07.189Z,21.17
2019-05-16T22:06:41.123Z,21.37
2019-05-16T22:09:16.386Z,21.67
2019-05-16T22:11:49.911Z,20.73
2019-05-16T22:14:27.745Z,21.20
2019-05-16T22:17:02.827Z,20.80
2019-05-16T22:19:36.585Z,20.95
2019-05-16T22:22:11.596Z,21.07
2019-05-16T22:24:49.215Z,21.67
2019-05-16T22:27:21.966Z,20.97
2019-05-16T22:29:56.735Z,21.33
2019-05-16T22:32:31.241Z,20.40
2019-05-16T22:35:07.896Z,20.17
2019-05-16T22:37:52.191Z,19.87
2019-05-16T22:40:20.489Z,20.40
2019-05-16T22:42:54.681Z,19.85
2019-05-16T22:45:28.941Z,20.57
2019-05-16T22:48:03.132Z,19.43
2019-05-16T22:50:38.705Z,20.87
2019-05-16T22:53:14.021Z,19.63
2019-05-16T22:55:47.825Z,20.03
2019-05-16T22:58:23.304Z,19.20
2019-05-16T23:00:57.398Z,19.00
2019-05-16T23:03:31.325Z,19.50
2019-05-16T23:06:07.646Z,19.30
2019-05-16T23:08:41.395Z,19.30
2019-05-16T23:11:16.555Z,19.17
2019-05-16T23:13:51.700Z,18.17
2019-05-16T23:16:26.666Z,18.20
2019-05-16T23:19:01.712Z,18.77
2019-05-16T23:21:37.182Z,18.45
2019-05-16T23:24:11.091Z,17.23
2019-05-16T23:26:46.837Z,18.57
2019-05-16T23:29:19.736Z,17.10
2019-05-16T23:31:56.428Z,17.87
2019-05-16T23:34:29.623Z,17.60
2019-05-16T23:37:06.473Z,16.27
2019-05-16T23:39:41.665Z,17.57
2019-05-16T23:42:15.437Z,15.90
2019-05-16T23:44:50.081Z,16.90
2019-05-16T23:47:23.674Z,15.73
2019-05-16T23:49:57.703Z,15.60
2019-05-16T23:52:33.164Z,15.63
2019-05-16T23:55:09.639Z,14.60
2019-05-16T23:57:46.614Z,15.60
